createdAt,value
2018-03-06T00:02:20.742Z,4.36
2018-03-06T00:04:48.451Z,4.37
2018-03-06T00:07:16.256Z,4.43
2018-03-06T00:09:43.902Z,4.41
2018-03-06T00:12:11.501Z,4.42
2018-03-06T00:14:39.176Z,4.42
2018-03-06T00:17:06.888Z,4.47
2018-03-06T00:19:34.477Z,4.49
2018-03-06T00:22:02.139Z,4.52
2018-03-06T00:24:29.744Z,4.50
2018-03-06T00:26:57.441Z,4.52
2018-03-06T00:29:25.114Z,4.53
2018-03-06T00:31:52.721Z,4.56
2018-03-06T00:34:20.336Z,4.56
2018-03-06T00:36:48.248Z,4.57
2018-03-06T00:39:15.847Z,4.59
2018-03-06T00:41:43.450Z,4.57
2018-03-06T00:44:11.107Z,4.55
2018-03-06T00:46:38.714Z,4.53
2018-03-06T00:49:06.317Z,4.53
2018-03-06T00:51:33.986Z,4.56
2018-03-06T00:54:01.588Z,4.51
2018-03-06T00:56:29.610Z,4.47
2018-03-06T00:58:58.063Z,4.45
2018-03-06T01:01:25.678Z,4.46
2018-03-06T01:03:53.294Z,4.44
2018-03-06T01:06:21.376Z,4.46
2018-03-06T01:08:48.947Z,4.51
2018-03-06T01:11:16.552Z,4.55
2018-03-06T01:13:44.434Z,4.53
2018-03-06T01:16:12.041Z,4.56
2018-03-06T01:18:39.635Z,4.58
2018-03-06T01:21:07.285Z,4.57
2018-03-06T01:23:34.905Z,4.57
2018-03-06T01:26:02.492Z,4.58
2018-03-06T01:28:30.140Z,4.62
2018-03-06T01:30:57.723Z,4.59
2018-03-06T01:33:25.315Z,4.64
2018-03-06T01:35:52.986Z,4.64
2018-03-06T01:38:20.642Z,4.67
2018-03-06T01:40:48.232Z,4.70
2018-03-06T01:43:16.312Z,4.75
2018-03-06T01:45:43.915Z,4.74
2018-03-06T01:48:11.558Z,4.72
2018-03-06T01:50:39.521Z,4.69
2018-03-06T01:53:07.116Z,4.69
2018-03-06T01:55:34.754Z,4.70
2018-03-06T01:58:02.485Z,4.70
2018-03-06T02:00:30.072Z,4.72
2018-03-06T02:02:57.694Z,4.69
2018-03-06T02:05:25.342Z,4.72
2018-03-06T02:07:52.931Z,4.78
2018-03-06T02:10:20.521Z,4.79
2018-03-06T02:12:48.189Z,4.82
2018-03-06T02:15:15.773Z,4.87
2018-03-06T02:17:43.367Z,4.82
2018-03-06T02:20:11.019Z,4.85
2018-03-06T02:22:38.632Z,4.86
2018-03-06T02:25:06.256Z,4.81
2018-03-06T02:27:33.921Z,4.81
2018-03-06T02:30:01.520Z,4.82
2018-03-06T02:32:29.121Z,4.86
2018-03-06T02:34:56.973Z,4.88
2018-03-06T02:37:24.577Z,4.88
2018-03-06T02:39:52.171Z,4.88
2018-03-06T02:42:19.814Z,4.89
2018-03-06T02:44:48.090Z,4.84
2018-03-06T02:47:15.675Z,4.77
2018-03-06T02:49:43.370Z,4.78
2018-03-06T02:52:10.997Z,4.74
2018-03-06T02:54:38.761Z,4.80
2018-03-06T02:57:06.431Z,4.70
2018-03-06T02:59:34.103Z,4.69
2018-03-06T03:02:01.696Z,4.69
2018-03-06T03:04:29.411Z,4.72
2018-03-06T03:06:56.984Z,4.71
2018-03-06T03:09:24.638Z,4.70
2018-03-06T03:11:53.255Z,4.68
2018-03-06T03:14:20.840Z,4.67
2018-03-06T03:16:48.464Z,4.64
2018-03-06T03:19:16.109Z,4.65
2018-03-06T03:21:43.686Z,4.64
2018-03-06T03:24:11.423Z,4.65
2018-03-06T03:26:39.134Z,4.62
2018-03-06T03:29:06.725Z,4.63
2018-03-06T03:31:34.334Z,4.65
2018-03-06T03:34:01.973Z,4.69
2018-03-06T03:36:29.569Z,4.69
2018-03-06T03:38:57.176Z,4.73
2018-03-06T03:41:24.901Z,4.73
2018-03-06T03:43:52.512Z,4.71
2018-03-06T03:46:20.173Z,4.70
2018-03-06T03:48:48.035Z,4.74
2018-03-06T03:51:15.815Z,4.73
2018-03-06T03:53:43.398Z,4.78
2018-03-06T03:56:11.464Z,4.82
2018-03-06T03:58:39.052Z,4.88
2018-03-06T04:01:07.107Z,4.97
2018-03-06T04:03:34.733Z,4.95
2018-03-06T04:06:02.406Z,4.98
2018-03-06T04:08:30.051Z,4.97
2018-03-06T04:10:57.787Z,4.96
2018-03-06T04:13:25.365Z,4.97
2018-03-06T04:15:53.784Z,4.99
2018-03-06T04:18:21.670Z,4.95
2018-03-06T04:20:49.265Z,5.00
2018-03-06T04:23:16.871Z,5.07
2018-03-06T04:25:45.259Z,5.10
2018-03-06T04:28:12.853Z,5.13
2018-03-06T04:30:40.448Z,5.14
2018-03-06T04:33:08.157Z,5.16
2018-03-06T04:35:36.402Z,5.20
2018-03-06T04:38:04.001Z,5.23
2018-03-06T04:40:31.726Z,5.28
2018-03-06T04:42:59.296Z,5.25
2018-03-06T04:45:26.884Z,5.25
2018-03-06T04:47:54.525Z,5.27
2018-03-06T04:50:22.170Z,5.29
2018-03-06T04:52:49.757Z,5.30
2018-03-06T04:55:17.633Z,5.32
2018-03-06T04:57:45.304Z,5.30
2018-03-06T05:00:12.889Z,5.29
2018-03-06T05:02:40.821Z,5.26
2018-03-06T05:05:09.636Z,5.24
2018-03-06T05:07:37.217Z,5.20
2018-03-06T05:10:05.105Z,5.22
2018-03-06T05:12:32.700Z,5.21
2018-03-06T05:15:00.286Z,5.26
2018-03-06T05:17:27.941Z,5.29
2018-03-06T05:19:55.603Z,5.36
2018-03-06T05:22:23.199Z,5.35
2018-03-06T05:24:50.858Z,5.33
2018-03-06T05:27:18.973Z,5.33
2018-03-06T05:29:47.839Z,5.32
2018-03-06T05:32:15.494Z,5.35
2018-03-06T05:34:43.071Z,5.33
2018-03-06T05:37:10.730Z,5.30
2018-03-06T05:39:38.361Z,5.34
2018-03-06T05:42:05.955Z,5.32
2018-03-06T05:44:33.553Z,5.34
2018-03-06T05:47:01.180Z,5.40
2018-03-06T05:49:28.768Z,5.44
2018-03-06T05:51:56.366Z,5.51
2018-03-06T05:54:24.012Z,5.58
2018-03-06T05:56:51.614Z,5.61
2018-03-06T05:59:19.278Z,5.63
2018-03-06T06:01:46.990Z,5.71
2018-03-06T06:04:14.711Z,5.74
2018-03-06T06:06:42.988Z,5.78
2018-03-06T06:09:10.846Z,5.87
2018-03-06T06:11:38.458Z,5.93
2018-03-06T06:14:06.981Z,5.99
2018-03-06T06:16:34.576Z,6.02
2018-03-06T06:19:02.249Z,6.11
2018-03-06T06:21:29.887Z,6.20
2018-03-06T06:23:57.504Z,6.25
2018-03-06T06:26:25.075Z,6.25
2018-03-06T06:28:52.638Z,6.25
2018-03-06T06:31:20.307Z,6.21
2018-03-06T06:33:47.872Z,6.23
2018-03-06T06:36:15.510Z,6.29
2018-03-06T06:38:43.149Z,6.31
2018-03-06T06:41:10.735Z,6.38
2018-03-06T06:43:38.338Z,6.43
2018-03-06T06:46:05.957Z,6.50
2018-03-06T06:48:33.568Z,6.57
2018-03-06T06:51:01.207Z,6.65
2018-03-06T06:53:28.854Z,6.69
2018-03-06T06:55:56.428Z,6.71
2018-03-06T06:58:24.030Z,6.78
2018-03-06T07:00:51.945Z,6.82
2018-03-06T07:03:19.518Z,6.88
2018-03-06T07:05:47.161Z,6.92
2018-03-06T07:08:15.892Z,6.96
2018-03-06T07:10:43.471Z,6.99
2018-03-06T07:13:11.111Z,7.02
2018-03-06T07:15:38.742Z,6.99
2018-03-06T07:18:06.306Z,6.99
2018-03-06T07:20:34.652Z,7.03
2018-03-06T07:23:02.862Z,7.08
2018-03-06T07:25:30.428Z,7.09
2018-03-06T07:27:57.984Z,7.11
2018-03-06T07:30:25.611Z,7.12
2018-03-06T07:32:53.183Z,7.19
2018-03-06T07:35:20.757Z,7.23
2018-03-06T07:37:48.380Z,7.25
2018-03-06T07:40:15.940Z,7.27
2018-03-06T07:42:43.500Z,7.28
2018-03-06T07:45:11.122Z,7.23
2018-03-06T07:47:38.759Z,7.19
2018-03-06T07:50:06.370Z,7.19
2018-03-06T07:52:34.263Z,7.20
2018-03-06T07:55:01.843Z,7.23
2018-03-06T07:57:29.463Z,7.25
2018-03-06T07:59:57.082Z,7.27
2018-03-06T08:02:24.721Z,7.27
2018-03-06T08:04:52.282Z,7.28
2018-03-06T08:07:19.996Z,7.29
2018-03-06T08:09:47.557Z,7.25
2018-03-06T08:12:15.121Z,7.14
2018-03-06T08:14:42.778Z,7.08
2018-03-06T08:17:10.347Z,7.02
2018-03-06T08:19:37.936Z,7.05
2018-03-06T08:22:05.540Z,7.12
2018-03-06T08:24:33.089Z,7.17
2018-03-06T08:27:00.746Z,7.29
2018-03-06T08:29:28.557Z,7.43
2018-03-06T08:31:56.109Z,7.50
2018-03-06T08:34:23.668Z,7.66
2018-03-06T08:36:51.484Z,7.49
2018-03-06T08:39:19.053Z,7.64
2018-03-06T08:41:46.618Z,7.64
2018-03-06T08:44:14.226Z,7.61
2018-03-06T08:46:41.846Z,7.58
2018-03-06T08:49:09.416Z,7.70
2018-03-06T08:51:37.252Z,7.72
2018-03-06T08:54:04.814Z,7.79
2018-03-06T08:56:32.410Z,7.86
2018-03-06T08:59:00.020Z,8.03
2018-03-06T09:01:27.604Z,8.16
2018-03-06T09:03:55.255Z,8.14
2018-03-06T09:06:23.090Z,8.18
2018-03-06T09:08:50.826Z,8.16
2018-03-06T09:11:19.454Z,8.27
2018-03-06T09:13:47.333Z,8.34
2018-03-06T09:16:14.946Z,8.34
2018-03-06T09:18:42.510Z,8.50
2018-03-06T09:21:10.172Z,8.71
2018-03-06T09:23:38.559Z,9.06
2018-03-06T09:26:06.133Z,9.36
2018-03-06T09:28:33.744Z,9.36
2018-03-06T09:31:01.310Z,9.48
2018-03-06T09:33:28.877Z,9.74
2018-03-06T09:35:56.518Z,10.05
2018-03-06T09:38:24.073Z,10.35
2018-03-06T09:40:51.741Z,10.54
2018-03-06T09:43:19.418Z,10.76
2018-03-06T09:45:46.990Z,10.71
2018-03-06T09:48:14.551Z,10.45
2018-03-06T09:50:42.167Z,10.08
2018-03-06T09:53:09.728Z,10.09
2018-03-06T09:55:37.298Z,9.88
2018-03-06T09:58:05.807Z,9.46
2018-03-06T10:00:33.356Z,9.36
2018-03-06T10:03:00.931Z,9.29
2018-03-06T10:05:28.549Z,9.32
2018-03-06T10:07:56.183Z,9.20
2018-03-06T10:10:23.785Z,9.09
2018-03-06T10:12:51.426Z,9.10
2018-03-06T10:15:19.044Z,9.09
2018-03-06T10:17:46.645Z,9.07
2018-03-06T10:20:14.321Z,9.11
2018-03-06T10:22:41.901Z,9.08
2018-03-06T10:25:09.530Z,8.90
2018-03-06T10:27:37.135Z,8.83
2018-03-06T10:30:04.748Z,8.84
2018-03-06T10:32:32.300Z,8.78
2018-03-06T10:35:00.114Z,8.72
2018-03-06T10:37:27.664Z,8.67
2018-03-06T10:39:55.208Z,8.53
2018-03-06T10:42:22.801Z,8.33
2018-03-06T10:44:50.368Z,8.24
2018-03-06T10:47:17.949Z,8.19
2018-03-06T10:49:45.577Z,8.16
2018-03-06T10:52:13.157Z,8.05
2018-03-06T10:54:40.711Z,8.13
2018-03-06T10:57:08.313Z,8.12
2018-03-06T10:59:35.942Z,8.24
2018-03-06T11:02:04.294Z,8.26
2018-03-06T11:04:31.897Z,8.32
2018-03-06T11:06:59.486Z,8.39
2018-03-06T11:09:27.057Z,8.52
2018-03-06T11:11:54.765Z,8.60
2018-03-06T11:14:22.376Z,8.74
2018-03-06T11:16:50.841Z,8.75
2018-03-06T11:19:18.443Z,8.80
2018-03-06T11:21:46.105Z,8.87
2018-03-06T11:24:13.698Z,8.78
2018-03-06T11:26:42.101Z,8.92
2018-03-06T11:29:09.731Z,9.05
2018-03-06T11:31:37.320Z,9.18
2018-03-06T11:34:04.927Z,9.37
2018-03-06T11:36:32.482Z,9.45
2018-03-06T11:39:00.130Z,9.58
2018-03-06T11:41:28.813Z,9.87
2018-03-06T11:43:56.390Z,10.13
2018-03-06T11:46:23.975Z,10.20
2018-03-06T11:48:51.666Z,10.17
2018-03-06T11:51:19.289Z,10.13
2018-03-06T11:53:46.844Z,10.10
2018-03-06T11:56:14.464Z,9.99
2018-03-06T11:58:42.023Z,9.95
2018-03-06T12:01:09.586Z,9.97
2018-03-06T12:03:37.173Z,9.94
2018-03-06T12:06:04.822Z,9.91
2018-03-06T12:08:32.394Z,9.84
2018-03-06T12:11:00.027Z,9.78
2018-03-06T12:13:27.648Z,9.61
2018-03-06T12:15:55.193Z,9.43
2018-03-06T12:18:23.154Z,9.26
2018-03-06T12:20:50.711Z,9.23
2018-03-06T12:23:18.346Z,9.30
2018-03-06T12:25:45.979Z,9.29
2018-03-06T12:28:13.554Z,9.17
2018-03-06T12:30:41.202Z,9.24
2018-03-06T12:33:08.879Z,9.46
2018-03-06T12:35:36.453Z,9.63
2018-03-06T12:38:04.027Z,9.72
2018-03-06T12:40:31.659Z,9.60
2018-03-06T12:42:59.282Z,9.43
2018-03-06T12:45:26.858Z,9.28
2018-03-06T12:47:54.481Z,9.37
2018-03-06T12:50:22.046Z,9.58
2018-03-06T12:52:49.618Z,9.64
2018-03-06T12:55:17.515Z,9.65
2018-03-06T12:57:45.150Z,9.58
2018-03-06T13:00:12.738Z,9.55
2018-03-06T13:02:40.340Z,9.75
2018-03-06T13:05:07.914Z,9.65
2018-03-06T13:07:35.539Z,9.40
2018-03-06T13:10:03.194Z,9.07
2018-03-06T13:12:30.757Z,8.84
2018-03-06T13:14:58.788Z,8.62
2018-03-06T13:17:26.485Z,8.41
2018-03-06T13:19:54.045Z,8.23
2018-03-06T13:22:21.605Z,8.01
2018-03-06T13:24:50.666Z,7.76
2018-03-06T13:27:18.894Z,7.65
2018-03-06T13:29:46.451Z,7.63
2018-03-06T13:32:14.288Z,7.65
2018-03-06T13:34:42.610Z,7.71
2018-03-06T13:37:10.172Z,7.80
2018-03-06T13:39:37.818Z,7.86
2018-03-06T13:42:05.394Z,7.92
2018-03-06T13:44:33.001Z,8.01
2018-03-06T13:47:00.676Z,8.13
2018-03-06T13:49:28.233Z,8.27
2018-03-06T13:51:55.792Z,8.47
2018-03-06T13:54:23.494Z,8.64
2018-03-06T13:56:51.069Z,8.71
2018-03-06T13:59:18.670Z,8.75
2018-03-06T14:01:46.360Z,8.94
2018-03-06T14:04:13.929Z,9.15
2018-03-06T14:06:42.242Z,9.35
2018-03-06T14:09:09.902Z,9.58
2018-03-06T14:11:37.470Z,9.79
2018-03-06T14:14:05.098Z,9.99
2018-03-06T14:16:33.551Z,10.21
2018-03-06T14:19:01.167Z,10.34
2018-03-06T14:21:28.794Z,10.40
2018-03-06T14:23:56.930Z,10.48
2018-03-06T14:26:24.585Z,10.49
2018-03-06T14:28:52.177Z,10.42
2018-03-06T14:31:19.795Z,10.54
2018-03-06T14:33:47.360Z,10.74
2018-03-06T14:36:15.102Z,10.91
2018-03-06T14:38:42.979Z,10.86
2018-03-06T14:41:10.604Z,10.83
2018-03-06T14:43:38.197Z,10.73
2018-03-06T14:46:05.868Z,10.70
2018-03-06T14:48:33.440Z,10.49
2018-03-06T14:51:03.860Z,10.45
2018-03-06T14:53:31.696Z,10.40
2018-03-06T14:55:59.292Z,10.27
2018-03-06T14:58:26.869Z,10.16
2018-03-06T15:00:54.488Z,10.05
2018-03-06T15:03:22.062Z,10.00
2018-03-06T15:05:49.631Z,10.00
2018-03-06T15:08:17.269Z,9.97
2018-03-06T15:10:44.841Z,9.96
2018-03-06T15:13:12.401Z,9.96
2018-03-06T15:15:40.616Z,9.95
2018-03-06T15:18:08.343Z,9.93
2018-03-06T15:20:35.925Z,9.87
2018-03-06T15:23:03.839Z,9.87
2018-03-06T15:25:31.453Z,9.88
2018-03-06T15:27:59.028Z,9.84
2018-03-06T15:30:26.635Z,9.71
2018-03-06T15:32:55.154Z,9.57
2018-03-06T15:35:22.746Z,9.53
2018-03-06T15:37:50.381Z,9.52
2018-03-06T15:40:17.926Z,9.53
2018-03-06T15:42:45.451Z,9.44
2018-03-06T15:45:13.037Z,9.40
2018-03-06T15:47:40.564Z,9.38
2018-03-06T15:50:08.932Z,9.33
2018-03-06T15:52:36.533Z,9.36
2018-03-06T15:55:04.075Z,9.40
2018-03-06T15:57:31.653Z,9.32
2018-03-06T15:59:59.453Z,9.29
2018-03-06T16:02:26.991Z,9.26
2018-03-06T16:04:54.531Z,9.25
2018-03-06T16:07:22.120Z,9.23
2018-03-06T16:09:49.659Z,9.24
2018-03-06T16:12:17.188Z,9.23
2018-03-06T16:14:44.791Z,9.27
2018-03-06T16:17:12.320Z,9.30
2018-03-06T16:19:40.126Z,9.35
2018-03-06T16:22:07.789Z,9.39
2018-03-06T16:24:35.333Z,9.43
2018-03-06T16:27:02.903Z,9.40
2018-03-06T16:29:30.979Z,9.42
2018-03-06T16:31:58.511Z,9.42
2018-03-06T16:34:26.121Z,9.40
2018-03-06T16:36:53.786Z,9.32
2018-03-06T16:39:21.423Z,9.23
2018-03-06T16:41:48.960Z,9.22
2018-03-06T16:44:16.860Z,9.21
2018-03-06T16:46:44.389Z,9.19
2018-03-06T16:49:11.925Z,9.07
2018-03-06T16:51:39.513Z,9.09
2018-03-06T16:54:07.644Z,9.11
2018-03-06T16:56:35.182Z,9.14
2018-03-06T16:59:02.781Z,9.16
2018-03-06T17:01:30.329Z,9.17
2018-03-06T17:03:57.867Z,9.15
2018-03-06T17:06:25.536Z,9.16
2018-03-06T17:08:53.077Z,9.17
2018-03-06T17:11:20.613Z,9.19
2018-03-06T17:13:49.099Z,9.18
2018-03-06T17:16:17.274Z,9.19
2018-03-06T17:18:44.824Z,9.16
2018-03-06T17:21:12.557Z,9.14
2018-03-06T17:23:40.096Z,9.15
2018-03-06T17:26:07.632Z,9.14
2018-03-06T17:28:35.215Z,9.15
2018-03-06T17:31:02.866Z,9.13
2018-03-06T17:33:30.402Z,9.07
2018-03-06T17:35:58.000Z,9.03
2018-03-06T17:38:25.554Z,9.06
2018-03-06T17:40:53.264Z,9.07
2018-03-06T17:43:20.868Z,9.09
2018-03-06T17:45:49.160Z,9.05
2018-03-06T17:48:16.710Z,9.04
2018-03-06T17:50:44.317Z,9.06
2018-03-06T17:53:11.880Z,9.04
2018-03-06T17:55:39.463Z,9.01
2018-03-06T17:58:07.051Z,8.90
2018-03-06T18:00:34.614Z,8.87
2018-03-06T18:03:02.194Z,8.83
2018-03-06T18:05:29.797Z,8.79
2018-03-06T18:07:57.444Z,8.75
2018-03-06T18:10:25.019Z,8.68
2018-03-06T18:12:52.617Z,8.69
2018-03-06T18:15:20.191Z,8.62
2018-03-06T18:17:47.750Z,8.61
2018-03-06T18:20:15.344Z,8.64
2018-03-06T18:22:43.417Z,8.66
2018-03-06T18:25:10.952Z,8.64
2018-03-06T18:27:38.829Z,8.66
2018-03-06T18:30:06.433Z,8.68
2018-03-06T18:32:33.961Z,8.69
2018-03-06T18:35:01.605Z,8.68
2018-03-06T18:37:29.168Z,8.67
2018-03-06T18:39:56.744Z,8.70
2018-03-06T18:42:24.352Z,8.73
2018-03-06T18:44:51.914Z,8.75
2018-03-06T18:47:19.441Z,8.67
2018-03-06T18:49:53.798Z,8.61
2018-03-06T18:52:21.339Z,8.63
2018-03-06T18:54:48.900Z,8.66
2018-03-06T18:57:16.484Z,8.69
2018-03-06T18:59:44.070Z,8.69
2018-03-06T19:02:23.764Z,8.69
2018-03-06T19:05:02.954Z,8.71
2018-03-06T19:07:30.553Z,8.71
2018-03-06T19:09:58.079Z,8.67
2018-03-06T19:12:25.629Z,8.65
2018-03-06T19:14:53.231Z,8.67
2018-03-06T19:17:20.847Z,8.62
2018-03-06T19:19:48.438Z,8.59
2018-03-06T19:22:15.999Z,8.58
2018-03-06T19:24:43.735Z,8.61
2018-03-06T19:27:11.342Z,8.64
2018-03-06T19:29:38.939Z,8.68
2018-03-06T19:32:06.557Z,8.65
2018-03-06T19:34:34.114Z,8.59
2018-03-06T19:37:01.965Z,8.55
2018-03-06T19:39:29.528Z,8.57
2018-03-06T19:41:57.108Z,8.58
2018-03-06T19:44:24.752Z,8.53
2018-03-06T19:46:52.329Z,8.52
2018-03-06T19:49:20.657Z,8.54
2018-03-06T19:51:48.412Z,8.52
2018-03-06T19:54:15.990Z,8.53
2018-03-06T19:56:43.587Z,8.57
2018-03-06T19:59:11.284Z,8.58
2018-03-06T20:01:38.898Z,8.52
2018-03-06T20:04:06.464Z,8.50
2018-03-06T20:06:34.083Z,8.52
2018-03-06T20:09:01.674Z,8.45
2018-03-06T20:11:29.254Z,8.41
2018-03-06T20:13:57.184Z,8.38
2018-03-06T20:16:24.790Z,8.34
2018-03-06T20:18:57.930Z,8.31
2018-03-06T20:21:25.608Z,8.33
2018-03-06T20:23:53.188Z,8.37
2018-03-06T20:26:20.881Z,8.39
2018-03-06T20:28:48.457Z,8.40
2018-03-06T20:31:21.704Z,8.43
2018-03-06T20:33:49.333Z,8.46
2018-03-06T20:36:16.920Z,8.47
2018-03-06T20:38:50.050Z,8.44
2018-03-06T20:41:17.623Z,8.45
2018-03-06T20:43:45.214Z,8.42
2018-03-06T20:46:18.310Z,8.39
2018-03-06T20:48:45.873Z,8.34
2018-03-06T20:51:13.511Z,8.37
2018-03-06T20:53:46.993Z,8.35
2018-03-06T20:56:14.560Z,8.32
2018-03-06T20:58:42.124Z,8.31
2018-03-06T21:01:09.737Z,8.28
2018-03-06T21:03:37.314Z,8.26
2018-03-06T21:06:04.922Z,8.20
2018-03-06T21:08:32.572Z,8.16
2018-03-06T21:11:00.145Z,8.11
2018-03-06T21:13:27.743Z,8.07
2018-03-06T21:15:55.414Z,7.98
2018-03-06T21:18:23.048Z,7.94
2018-03-06T21:20:50.627Z,7.93
2018-03-06T21:23:18.468Z,7.86
2018-03-06T21:25:46.051Z,7.83
2018-03-06T21:28:13.954Z,7.78
2018-03-06T21:30:41.786Z,7.73
2018-03-06T21:33:09.355Z,7.73
2018-03-06T21:35:36.917Z,7.71
2018-03-06T21:38:04.535Z,7.66
2018-03-06T21:40:33.123Z,7.59
2018-03-06T21:43:00.692Z,7.53
2018-03-06T21:45:28.296Z,7.51
2018-03-06T21:47:55.899Z,7.52
2018-03-06T21:50:23.487Z,7.50
2018-03-06T21:52:51.095Z,7.43
2018-03-06T21:55:18.916Z,7.41
2018-03-06T21:57:46.475Z,7.40
2018-03-06T22:00:14.106Z,7.42
2018-03-06T22:02:41.669Z,7.42
2018-03-06T22:05:09.325Z,7.48
2018-03-06T22:07:37.221Z,7.53
2018-03-06T22:10:04.792Z,7.54
2018-03-06T22:12:32.371Z,7.60
2018-03-06T22:14:59.983Z,7.66
2018-03-06T22:17:27.615Z,7.65
2018-03-06T22:19:55.197Z,7.56
2018-03-06T22:22:22.921Z,7.60
2018-03-06T22:24:50.494Z,7.64
2018-03-06T22:27:18.381Z,7.66
2018-03-06T22:29:46.529Z,7.73
2018-03-06T22:32:14.142Z,7.78
2018-03-06T22:34:41.740Z,7.85
2018-03-06T22:37:09.362Z,7.88
2018-03-06T22:39:36.928Z,7.99
2018-03-06T22:42:04.500Z,8.11
2018-03-06T22:44:32.371Z,8.21
2018-03-06T22:46:59.943Z,8.36
2018-03-06T22:49:27.496Z,8.51
2018-03-06T22:51:55.164Z,8.64
2018-03-06T22:54:22.728Z,8.76
2018-03-06T22:56:50.288Z,8.83
2018-03-06T22:59:18.802Z,8.89
2018-03-06T23:01:46.379Z,8.97
2018-03-06T23:04:13.942Z,9.05
2018-03-06T23:06:41.661Z,9.13
2018-03-06T23:09:09.220Z,9.20
2018-03-06T23:11:36.781Z,9.15
2018-03-06T23:14:04.526Z,9.06
2018-03-06T23:16:32.084Z,8.88
2018-03-06T23:18:59.722Z,8.83
2018-03-06T23:21:27.667Z,8.77
2018-03-06T23:23:55.244Z,8.65
2018-03-06T23:26:22.906Z,8.67
2018-03-06T23:28:50.554Z,8.63
2018-03-06T23:31:18.211Z,8.63
2018-03-06T23:33:45.779Z,8.63
2018-03-06T23:36:13.752Z,8.41
2018-03-06T23:38:41.338Z,8.27
2018-03-06T23:41:08.911Z,8.22
2018-03-06T23:43:36.528Z,8.26
2018-03-06T23:46:04.153Z,8.58
2018-03-06T23:48:31.724Z,8.65
2018-03-06T23:50:59.397Z,8.54
2018-03-06T23:53:27.031Z,8.29
2018-03-06T23:55:54.594Z,8.29
2018-03-06T23:58:22.275Z,8.21
